Naha Airport
ROAH : now visible

Airfield :











YOU CAN JOIN US ON...

 
LOGIN :

Register | Disclaimer

   EN    FR    IT 

 









Legend :    VFR   Marginal VFR   IFR   Intensive IFR   Very Intensive IFR
Visi :
Ceiling :
>= 8 km
>= 3000ft
5 to 8 km
1000 to 3000 ft
1500m to 5 km
500 to 1000 ft
800 to 1500m
200 to 500 ft
< 800m
< 200 ft
Symbols :   Thunderstorms  Fog  Heavy snow  Heavy precipitations  Wind > 20 kt







- Airport Elevation : 12 ft
- IATA code : OKA


ROAH - Naha

CURRENT METAR :
  • 260900Z 13013KT 9999 SCT030 BKN/// 26/18 Q1013

EXPIRED METARs :
  • 260830Z 13013KT 9999 FEW030 BKN/// 26/18 Q1013
  • 260800Z 13013KT 9999 FEW030 BKN/// 26/18 Q1013
  • 260730Z 14015KT 090V160 9999 FEW030 BKN/// 27/18 Q1013
  • 260700Z 14015KT 9999 FEW033 SCT/// 27/17 Q1013
  • 260649Z 13015G25KT 9999 FEW033 27/18 Q1013 RMK 2CU033 A2992
  • 260630Z 14015KT 110V170 9999 SCT033 27/17 Q1013 RMK 3CU033 A2993

TAF TAF ROAH
Valid from the 26 at 06:00 until the 27 at 12:00 UTC


260505Z 2606/2712 13011KT 9999 FEW025 SCT035
RJJJ FIR / Asia



MET'MAP, your aeronautical weather chart ! - Copyright ORBIFLY December 2007 - Disclaimer

ORBIFLY MET'MAP TEAM :

Programming & Development : Alexandra Zaïnal
Concept & Development : Baudouin d'Aumeries
Co-Development & Prog : Marc-Olivier Méhu
Technical & hardware support : Manuel Goepfert

Contact : metmap@orbifly.com




SOURCES & CREDITS :

   NOAA       Earth
Advisory